createdAt,value
2018-11-12T00:00:39.534Z,20.27
2018-11-12T00:03:07.758Z,21.80
2018-11-12T00:05:35.967Z,17.80
2018-11-12T00:08:04.177Z,21.12
2018-11-12T00:10:32.416Z,19.50
2018-11-12T00:13:00.727Z,20.23
2018-11-12T00:15:28.987Z,18.23
2018-11-12T00:17:57.222Z,23.73
2018-11-12T00:20:25.438Z,20.08
2018-11-12T00:22:53.718Z,53.68
2018-11-12T00:25:21.986Z,49.03
2018-11-12T00:27:50.194Z,21.07
2018-11-12T00:30:19.442Z,22.10
2018-11-12T00:32:48.296Z,19.02
2018-11-12T00:35:16.530Z,18.07
2018-11-12T00:37:45.478Z,20.68
2018-11-12T00:40:15.793Z,22.77
2018-11-12T00:42:44.473Z,16.55
2018-11-12T00:45:12.955Z,21.10
2018-11-12T00:47:41.314Z,18.45
2018-11-12T00:50:10.841Z,24.98
2018-11-12T00:52:39.428Z,21.90
2018-11-12T00:55:09.247Z,20.00
2018-11-12T00:57:37.566Z,20.30
2018-11-12T01:00:10.399Z,18.10
2018-11-12T01:02:39.507Z,18.67
2018-11-12T01:05:07.826Z,18.35
2018-11-12T01:07:36.053Z,17.23
2018-11-12T01:10:05.966Z,23.12
2018-11-12T01:12:34.236Z,22.58
2018-11-12T01:15:02.469Z,18.02
2018-11-12T01:17:30.795Z,17.48
2018-11-12T01:19:59.011Z,23.00
2018-11-12T01:22:27.243Z,20.30
2018-11-12T01:24:55.480Z,20.37
2018-11-12T01:27:23.688Z,23.15
2018-11-12T01:29:51.918Z,31.10
2018-11-12T01:32:20.138Z,32.15
2018-11-12T01:34:48.365Z,31.42
2018-11-12T01:37:16.593Z,25.57
2018-11-12T01:39:44.839Z,25.15
2018-11-12T01:42:13.160Z,22.55
2018-11-12T01:44:41.362Z,30.48
2018-11-12T01:47:09.596Z,27.75
2018-11-12T01:49:37.826Z,29.20
2018-11-12T01:52:06.383Z,31.50
2018-11-12T01:54:34.666Z,36.53
2018-11-12T01:57:02.904Z,29.98
2018-11-12T01:59:31.175Z,28.20
2018-11-12T02:01:59.456Z,23.42
2018-11-12T02:04:27.689Z,33.80
2018-11-12T02:06:55.913Z,27.20
2018-11-12T02:09:24.170Z,22.40
2018-11-12T02:11:52.389Z,20.08
2018-11-12T02:14:20.671Z,18.48
2018-11-12T02:16:48.867Z,18.73
2018-11-12T02:19:17.115Z,20.08
2018-11-12T02:21:45.306Z,14.35
2018-11-12T02:24:13.750Z,15.63
2018-11-12T02:26:41.953Z,20.30
2018-11-12T02:29:10.205Z,18.20
2018-11-12T02:31:38.390Z,17.55
2018-11-12T02:34:06.598Z,18.30
2018-11-12T02:36:34.809Z,18.15
2018-11-12T02:39:03.138Z,15.55
2018-11-12T02:41:31.358Z,15.83
2018-11-12T02:43:59.585Z,16.65
2018-11-12T02:46:27.812Z,15.53
2018-11-12T02:48:56.019Z,14.23
2018-11-12T02:51:24.321Z,13.22
2018-11-12T02:53:52.490Z,16.97
2018-11-12T02:56:20.724Z,12.33
2018-11-12T02:58:48.915Z,11.75
2018-11-12T03:01:21.793Z,12.50
2018-11-12T03:03:50.432Z,12.63
2018-11-12T03:06:18.663Z,12.33
2018-11-12T03:08:46.867Z,11.95
2018-11-12T03:11:15.127Z,14.98
2018-11-12T03:13:43.350Z,14.20
2018-11-12T03:16:11.812Z,11.73
2018-11-12T03:18:40.015Z,12.70
2018-11-12T03:21:08.214Z,11.38
2018-11-12T03:23:36.642Z,12.33
2018-11-12T03:26:04.995Z,11.95
2018-11-12T03:28:33.269Z,13.25
2018-11-12T03:31:01.834Z,12.85
2018-11-12T03:33:30.027Z,11.78
2018-11-12T03:35:58.240Z,10.72
2018-11-12T03:38:26.481Z,12.13
2018-11-12T03:40:54.703Z,18.57
2018-11-12T03:43:22.917Z,12.80
2018-11-12T03:45:51.142Z,15.00
2018-11-12T03:48:19.360Z,12.98
2018-11-12T03:50:47.748Z,11.70
2018-11-12T03:53:15.994Z,11.90
2018-11-12T03:55:44.223Z,13.85
2018-11-12T03:58:12.435Z,16.87
2018-11-12T04:00:40.646Z,13.35
2018-11-12T04:03:08.859Z,11.22
2018-11-12T04:05:37.091Z,13.83
2018-11-12T04:08:05.375Z,15.50
2018-11-12T04:10:33.671Z,14.07
2018-11-12T04:13:01.991Z,13.32
2018-11-12T04:15:30.256Z,12.70
2018-11-12T04:17:58.478Z,12.13
2018-11-12T04:20:26.755Z,14.20
2018-11-12T04:23:01.795Z,11.65
2018-11-12T04:25:30.113Z,10.40
2018-11-12T04:27:58.346Z,11.48
2018-11-12T04:30:26.569Z,9.85
2018-11-12T04:32:54.815Z,11.18
2018-11-12T04:35:23.052Z,10.50
2018-11-12T04:37:51.343Z,9.70
2018-11-12T04:40:19.818Z,10.70
2018-11-12T04:42:48.675Z,10.50
2018-11-12T04:45:18.957Z,11.12
2018-11-12T04:47:48.020Z,12.68
2018-11-12T04:50:18.259Z,10.03
2018-11-12T04:52:46.905Z,10.03
2018-11-12T04:55:16.452Z,10.40
2018-11-12T04:57:45.243Z,10.63
2018-11-12T05:00:16.522Z,10.50
2018-11-12T05:02:44.741Z,10.95
2018-11-12T05:05:14.160Z,12.20
2018-11-12T05:07:42.976Z,10.88
2018-11-12T05:10:13.173Z,9.78
2018-11-12T05:12:42.064Z,11.55
2018-11-12T05:15:12.178Z,9.95
2018-11-12T05:17:40.510Z,10.65
2018-11-12T05:20:12.339Z,10.72
2018-11-12T05:22:41.019Z,10.10
2018-11-12T05:25:09.726Z,10.15
2018-11-12T05:27:38.002Z,10.75
2018-11-12T05:30:13.101Z,11.40
2018-11-12T05:32:41.413Z,12.07
2018-11-12T05:35:09.704Z,11.83
2018-11-12T05:37:38.063Z,10.23
2018-11-12T05:40:08.500Z,10.10
2018-11-12T05:42:36.846Z,9.63
2018-11-12T05:45:05.842Z,13.98
2018-11-12T05:47:34.121Z,10.08
2018-11-12T05:50:02.423Z,11.22
2018-11-12T05:52:30.798Z,12.07
2018-11-12T05:54:59.441Z,9.85
2018-11-12T05:57:27.675Z,9.53
2018-11-12T05:59:55.935Z,9.43
2018-11-12T06:02:24.283Z,9.25
2018-11-12T06:04:52.742Z,10.08
2018-11-12T06:07:20.967Z,9.98
2018-11-12T06:09:49.304Z,10.18
2018-11-12T06:12:17.619Z,10.08
2018-11-12T06:14:45.873Z,12.10
2018-11-12T06:17:14.174Z,11.22
2018-11-12T06:19:42.450Z,13.03
2018-11-12T06:22:10.806Z,14.15
2018-11-12T06:24:39.126Z,15.72
2018-11-12T06:27:07.387Z,11.68
2018-11-12T06:29:35.692Z,12.68
2018-11-12T06:32:04.139Z,10.95
2018-11-12T06:34:32.495Z,10.72
2018-11-12T06:37:00.778Z,12.75
2018-11-12T06:39:29.065Z,10.43
2018-11-12T06:41:57.449Z,9.93
2018-11-12T06:44:25.821Z,9.60
2018-11-12T06:46:54.209Z,10.70
2018-11-12T06:49:22.562Z,10.40
2018-11-12T06:51:50.855Z,9.75
2018-11-12T06:54:19.128Z,9.55
2018-11-12T06:56:47.518Z,10.18
2018-11-12T06:59:15.798Z,10.55
2018-11-12T07:01:44.094Z,13.22
2018-11-12T07:04:12.365Z,11.00
2018-11-12T07:06:40.731Z,15.93
2018-11-12T07:09:10.997Z,10.85
2018-11-12T07:11:39.226Z,12.28
2018-11-12T07:14:07.629Z,11.60
2018-11-12T07:16:36.252Z,12.15
2018-11-12T07:19:04.605Z,11.40
2018-11-12T07:21:32.817Z,11.20
2018-11-12T07:24:01.090Z,10.43
2018-11-12T07:26:29.353Z,9.88
2018-11-12T07:28:57.630Z,11.25
2018-11-12T07:31:26.048Z,10.05
2018-11-12T07:33:54.227Z,10.08
2018-11-12T07:36:22.499Z,9.53
2018-11-12T07:38:50.733Z,10.50
2018-11-12T07:41:18.951Z,9.33
2018-11-12T07:43:47.184Z,12.30
2018-11-12T07:46:15.497Z,9.23
2018-11-12T07:48:43.788Z,9.08
2018-11-12T07:51:12.029Z,9.90
2018-11-12T07:53:40.250Z,8.08
2018-11-12T07:56:08.492Z,9.28
2018-11-12T07:58:38.996Z,8.28
2018-11-12T08:01:10.138Z,8.45
2018-11-12T08:03:38.507Z,8.48
2018-11-12T08:06:06.658Z,8.33
2018-11-12T08:08:34.929Z,8.78
2018-11-12T08:11:03.354Z,8.73
2018-11-12T08:13:31.624Z,9.83
2018-11-12T08:15:59.940Z,9.43
2018-11-12T08:18:28.236Z,9.30
2018-11-12T08:20:56.552Z,9.35
2018-11-12T08:23:24.840Z,10.35
2018-11-12T08:25:53.131Z,10.95
2018-11-12T08:28:21.396Z,10.05
2018-11-12T08:30:49.662Z,10.40
2018-11-12T08:33:17.932Z,9.08
2018-11-12T08:35:46.246Z,11.35
2018-11-12T08:38:14.523Z,9.18
2018-11-12T08:40:42.919Z,9.70
2018-11-12T08:43:11.081Z,8.30
2018-11-12T08:45:39.328Z,9.25
2018-11-12T08:48:07.626Z,10.88
2018-11-12T08:50:35.902Z,11.38
2018-11-12T08:53:04.358Z,11.22
2018-11-12T08:55:32.681Z,10.78
2018-11-12T08:58:02.474Z,10.55
2018-11-12T09:00:30.869Z,9.48
2018-11-12T09:02:59.254Z,11.43
2018-11-12T09:05:28.841Z,10.60
2018-11-12T09:07:58.317Z,9.90
2018-11-12T09:10:30.906Z,12.35
2018-11-12T09:12:59.114Z,10.65
2018-11-12T09:15:27.395Z,9.50
2018-11-12T09:17:55.562Z,10.93
2018-11-12T09:20:25.039Z,12.82
2018-11-12T09:22:53.700Z,10.72
2018-11-12T09:25:22.946Z,10.35
2018-11-12T09:27:51.236Z,9.50
2018-11-12T09:30:22.768Z,9.20
2018-11-12T09:32:51.108Z,9.58
2018-11-12T09:35:22.496Z,9.40
2018-11-12T09:37:51.952Z,9.75
2018-11-12T09:40:24.634Z,8.85
2018-11-12T09:42:52.927Z,10.68
2018-11-12T09:45:21.175Z,9.95
2018-11-12T09:47:49.477Z,8.58
2018-11-12T09:50:18.978Z,8.70
2018-11-12T09:52:48.372Z,10.10
2018-11-12T09:55:17.652Z,7.80
2018-11-12T09:57:47.353Z,8.53
2018-11-12T10:00:16.763Z,8.83
2018-11-12T10:02:46.772Z,8.70
2018-11-12T10:05:15.706Z,9.00
2018-11-12T10:07:44.754Z,8.30
2018-11-12T10:10:20.522Z,10.53
2018-11-12T10:12:49.415Z,10.73
2018-11-12T10:15:18.825Z,10.73
2018-11-12T10:17:46.606Z,11.13
2018-11-12T10:20:11.919Z,10.00
2018-11-12T10:22:40.380Z,9.87
2018-11-12T10:25:08.750Z,9.27
2018-11-12T10:27:37.082Z,9.73
2018-11-12T10:30:06.224Z,10.40
2018-11-12T10:32:34.556Z,9.03
2018-11-12T10:35:02.830Z,9.70
2018-11-12T10:37:31.096Z,10.30
2018-11-12T10:39:59.384Z,9.90
2018-11-12T10:42:27.869Z,9.40
2018-11-12T10:44:56.129Z,8.77
2018-11-12T10:47:24.439Z,10.17
2018-11-12T10:49:53.574Z,10.57
2018-11-12T10:52:21.858Z,9.30
2018-11-12T10:55:04.036Z,10.08
2018-11-12T10:57:18.565Z,9.73
2018-11-12T10:59:46.882Z,12.20
2018-11-12T11:03:18.038Z,10.47
2018-11-12T11:05:47.956Z,10.30
2018-11-12T11:08:16.615Z,9.97
2018-11-12T11:10:44.934Z,14.57
2018-11-12T11:13:13.153Z,9.60
2018-11-12T11:15:41.466Z,10.00
2018-11-12T11:18:09.638Z,9.48
2018-11-12T11:20:37.884Z,10.82
2018-11-12T11:23:06.151Z,11.10
2018-11-12T11:25:34.519Z,11.13
2018-11-12T11:28:02.726Z,11.00
2018-11-12T11:30:30.962Z,9.45
2018-11-12T11:32:59.316Z,9.25
2018-11-12T11:35:27.612Z,10.90
2018-11-12T11:37:55.948Z,9.13
2018-11-12T11:40:25.532Z,10.70
2018-11-12T11:42:53.722Z,9.27
2018-11-12T11:45:22.382Z,10.00
2018-11-12T11:47:51.561Z,10.00
2018-11-12T11:50:22.138Z,9.37
2018-11-12T11:52:50.277Z,11.05
2018-11-12T11:55:19.825Z,10.53
2018-11-12T11:57:48.530Z,10.47
2018-11-12T12:00:22.912Z,9.43
2018-11-12T12:02:52.183Z,10.43
2018-11-12T12:05:21.237Z,10.07
2018-11-12T12:07:49.869Z,9.17
2018-11-12T12:10:18.245Z,11.07
2018-11-12T12:12:47.615Z,12.03
2018-11-12T12:15:17.383Z,10.57
2018-11-12T12:17:45.793Z,10.60
2018-11-12T12:20:29.571Z,11.47
2018-11-12T12:22:58.029Z,8.97
2018-11-12T12:25:26.416Z,8.90
2018-11-12T12:27:54.606Z,13.00
2018-11-12T12:30:24.197Z,11.90
2018-11-12T12:32:53.627Z,11.60
2018-11-12T12:35:21.874Z,11.27
2018-11-12T12:37:50.140Z,9.90
2018-11-12T12:40:19.925Z,10.63
2018-11-12T12:42:48.347Z,9.80
2018-11-12T12:45:18.007Z,10.80
2018-11-12T12:47:46.728Z,10.47
2018-11-12T12:50:15.919Z,10.27
2018-11-12T12:52:44.198Z,9.83
2018-11-12T12:55:13.657Z,11.00
2018-11-12T12:57:42.810Z,10.00
2018-11-12T13:00:13.718Z,12.20
2018-11-12T13:02:42.077Z,13.10
2018-11-12T13:05:10.386Z,11.93
2018-11-12T13:07:39.038Z,11.83
2018-11-12T13:10:08.699Z,12.70
2018-11-12T13:12:37.017Z,13.97
2018-11-12T13:15:07.177Z,13.03
2018-11-12T13:17:35.689Z,14.47
2018-11-12T13:20:03.961Z,15.20
2018-11-12T13:22:32.237Z,15.07
2018-11-12T13:25:00.502Z,15.07
2018-11-12T13:27:28.824Z,13.13
2018-11-12T13:29:57.320Z,13.20
2018-11-12T13:32:25.558Z,13.00
2018-11-12T13:34:53.818Z,13.77
2018-11-12T13:37:22.063Z,11.87
2018-11-12T13:39:50.311Z,14.17
2018-11-12T13:42:19.231Z,15.63
2018-11-12T13:44:47.485Z,14.50
2018-11-12T13:47:15.731Z,15.50
2018-11-12T13:49:44.005Z,15.03
2018-11-12T13:52:12.343Z,14.33
2018-11-12T13:54:40.618Z,14.50
2018-11-12T13:57:08.896Z,15.90
2018-11-12T13:59:37.210Z,16.60
2018-11-12T14:02:05.532Z,16.93
2018-11-12T14:04:33.766Z,17.75
2018-11-12T14:07:02.111Z,17.47
2018-11-12T14:09:30.407Z,19.73
2018-11-12T14:11:58.739Z,16.75
2018-11-12T14:14:26.959Z,16.63
2018-11-12T14:16:55.451Z,15.37
2018-11-12T14:19:23.712Z,18.43
2018-11-12T14:21:52.005Z,15.90
2018-11-12T14:24:20.354Z,17.87
2018-11-12T14:26:48.638Z,24.20
2018-11-12T14:29:16.923Z,18.30
2018-11-12T14:31:45.189Z,15.93
2018-11-12T14:34:13.447Z,17.90
2018-11-12T14:36:42.070Z,16.43
2018-11-12T14:39:10.810Z,23.03
2018-11-12T14:41:39.369Z,15.40
2018-11-12T14:44:07.747Z,14.80
2018-11-12T14:46:36.095Z,16.50
2018-11-12T14:49:04.439Z,19.77
2018-11-12T14:51:32.780Z,16.77
2018-11-12T14:54:01.152Z,18.60
2018-11-12T14:56:29.394Z,16.50
2018-11-12T14:58:57.839Z,16.00
2018-11-12T15:01:26.251Z,16.90
2018-11-12T15:03:54.495Z,17.23
2018-11-12T15:06:22.741Z,17.30
2018-11-12T15:08:51.072Z,17.37
2018-11-12T15:11:19.294Z,16.32
2018-11-12T15:13:47.599Z,23.67
2018-11-12T15:16:15.887Z,19.02
2018-11-12T15:18:44.118Z,18.23
2018-11-12T15:21:12.450Z,17.12
2018-11-12T15:23:40.730Z,15.60
2018-11-12T15:26:09.001Z,18.55
2018-11-12T15:28:37.332Z,16.37
2018-11-12T15:31:05.735Z,19.13
2018-11-12T15:33:34.050Z,17.20
2018-11-12T15:36:02.442Z,17.77
2018-11-12T15:38:30.678Z,20.23
2018-11-12T15:40:59.146Z,20.80
2018-11-12T15:43:27.463Z,19.20
2018-11-12T15:45:55.820Z,16.97
2018-11-12T15:48:24.131Z,19.32
2018-11-12T15:50:52.452Z,22.58
2018-11-12T15:53:20.747Z,20.68
2018-11-12T15:55:49.038Z,20.48
2018-11-12T15:58:17.501Z,21.23
2018-11-12T16:00:45.694Z,18.45
2018-11-12T16:03:14.002Z,18.05
2018-11-12T16:05:42.386Z,19.52
2018-11-12T16:08:10.711Z,23.20
2018-11-12T16:10:39.055Z,20.48
2018-11-12T16:13:07.286Z,20.35
2018-11-12T16:15:35.564Z,18.23
2018-11-12T16:18:03.831Z,19.40
2018-11-12T16:20:32.200Z,20.70
2018-11-12T16:23:01.220Z,20.00
2018-11-12T16:25:29.842Z,21.03
2018-11-12T16:27:58.216Z,22.07
2018-11-12T16:30:26.453Z,20.50
2018-11-12T16:32:54.696Z,22.03
2018-11-12T16:35:23.922Z,20.30
2018-11-12T16:37:53.244Z,25.23
2018-11-12T16:40:22.039Z,22.27
2018-11-12T16:42:50.833Z,24.20
2018-11-12T16:45:19.113Z,26.45
2018-11-12T16:47:47.491Z,29.70
2018-11-12T16:50:16.382Z,25.12
2018-11-12T16:52:44.741Z,29.05
2018-11-12T16:55:17.101Z,25.15
2018-11-12T16:57:45.646Z,26.15
2018-11-12T17:00:14.990Z,29.00
2018-11-12T17:02:43.758Z,25.25
2018-11-12T17:05:13.322Z,28.80
2018-11-12T17:07:41.639Z,26.23
2018-11-12T17:10:12.200Z,28.62
2018-11-12T17:12:41.421Z,27.90
2018-11-12T17:15:10.438Z,31.02
2018-11-12T17:17:38.935Z,27.37
2018-11-12T17:20:08.170Z,27.73
2018-11-12T17:22:36.758Z,27.30
2018-11-12T17:25:05.980Z,25.25
2018-11-12T17:27:34.230Z,26.55
2018-11-12T17:30:02.511Z,26.60
2018-11-12T17:32:31.159Z,27.85
2018-11-12T17:34:59.421Z,25.00
2018-11-12T17:37:27.685Z,26.97
2018-11-12T17:39:55.916Z,26.33
2018-11-12T17:42:24.191Z,25.82
2018-11-12T17:44:52.456Z,25.23
2018-11-12T17:47:21.198Z,26.57
2018-11-12T17:49:49.574Z,27.52
2018-11-12T17:52:17.816Z,28.85
2018-11-12T17:54:46.537Z,26.12
2018-11-12T17:57:14.810Z,31.55
2018-11-12T17:59:43.061Z,29.23
2018-11-12T18:02:11.334Z,30.85
2018-11-12T18:04:39.647Z,28.77
2018-11-12T18:07:08.004Z,26.25
2018-11-12T18:09:36.206Z,26.68
2018-11-12T18:12:05.238Z,28.07
2018-11-12T18:14:33.474Z,26.70
2018-11-12T18:17:01.714Z,25.25
2018-11-12T18:19:29.934Z,30.00
2018-11-12T18:21:58.166Z,31.27
2018-11-12T18:24:26.467Z,28.25
2018-11-12T18:26:54.705Z,29.40
2018-11-12T18:29:22.946Z,34.30
2018-11-12T18:31:51.302Z,31.57
2018-11-12T18:34:19.396Z,31.07
2018-11-12T18:36:47.671Z,30.60
2018-11-12T18:39:15.878Z,28.75
2018-11-12T18:41:44.149Z,33.35
2018-11-12T18:44:13.246Z,36.10
2018-11-12T18:46:41.509Z,37.67
2018-11-12T18:49:09.767Z,34.63
2018-11-12T18:51:38.158Z,33.45
2018-11-12T18:54:06.500Z,35.52
2018-11-12T18:56:34.799Z,33.67
2018-11-12T18:59:03.086Z,30.40
2018-11-12T19:01:31.362Z,33.05
2018-11-12T19:04:00.100Z,33.48
2018-11-12T19:06:28.694Z,31.33
2018-11-12T19:08:57.037Z,30.85
2018-11-12T19:11:26.118Z,30.62
2018-11-12T19:13:54.436Z,29.40
2018-11-12T19:16:22.817Z,27.52
2018-11-12T19:18:51.055Z,27.25
2018-11-12T19:21:19.350Z,28.80
2018-11-12T19:23:47.597Z,30.25
2018-11-12T19:26:15.882Z,27.80
2018-11-12T19:28:44.163Z,27.42
2018-11-12T19:31:12.535Z,36.28
2018-11-12T19:33:40.800Z,32.88
2018-11-12T19:36:09.066Z,34.50
2018-11-12T19:38:37.318Z,34.27
2018-11-12T19:41:06.323Z,30.12
2018-11-12T19:43:34.618Z,28.60
2018-11-12T19:46:03.001Z,33.02
2018-11-12T19:48:31.327Z,37.73
2018-11-12T19:50:59.694Z,43.65
2018-11-12T19:53:27.940Z,39.90
2018-11-12T19:55:56.224Z,40.03
2018-11-12T19:58:24.496Z,35.98
2018-11-12T20:00:52.952Z,31.95
2018-11-12T20:03:21.290Z,34.45
2018-11-12T20:05:49.632Z,36.05
2018-11-12T20:08:18.133Z,29.32
2018-11-12T20:10:46.352Z,28.73
2018-11-12T20:13:14.615Z,32.55
2018-11-12T20:15:42.958Z,34.80
2018-11-12T20:18:11.178Z,30.45
2018-11-12T20:20:39.499Z,28.45
2018-11-12T20:23:07.799Z,29.42
2018-11-12T20:25:36.305Z,25.52
2018-11-12T20:28:04.609Z,28.65
2018-11-12T20:30:35.145Z,24.35
2018-11-12T20:33:03.694Z,25.80
2018-11-12T20:35:32.038Z,24.65
2018-11-12T20:38:00.322Z,25.10
2018-11-12T20:40:28.540Z,23.22
2018-11-12T20:42:56.864Z,27.80
2018-11-12T20:45:25.543Z,28.83
2018-11-12T20:47:55.073Z,26.73
2018-11-12T20:50:23.273Z,27.52
2018-11-12T20:52:51.564Z,29.25
2018-11-12T20:55:19.936Z,27.27
2018-11-12T20:57:48.203Z,26.23
2018-11-12T21:00:19.310Z,28.10
2018-11-12T21:02:48.930Z,28.98
2018-11-12T21:05:17.599Z,29.72
2018-11-12T21:07:45.807Z,29.00
2018-11-12T21:10:15.583Z,31.10
2018-11-12T21:12:44.196Z,26.85
2018-11-12T21:15:13.567Z,27.75
2018-11-12T21:17:41.938Z,29.02
2018-11-12T21:20:13.422Z,27.02
2018-11-12T21:22:42.038Z,27.52
2018-11-12T21:25:11.595Z,25.97
2018-11-12T21:27:40.183Z,31.42
2018-11-12T21:30:11.838Z,27.65
2018-11-12T21:32:40.157Z,28.80
2018-11-12T21:35:08.515Z,26.95
2018-11-12T21:37:37.310Z,28.45
2018-11-12T21:40:09.167Z,31.23
2018-11-12T21:42:37.450Z,28.80
2018-11-12T21:45:07.201Z,29.32
2018-11-12T21:47:35.837Z,27.17
2018-11-12T21:50:04.682Z,28.20
2018-11-12T21:52:32.891Z,27.60
2018-11-12T21:55:01.125Z,27.10
2018-11-12T21:57:29.415Z,32.75
2018-11-12T21:59:57.771Z,23.35
2018-11-12T22:02:26.071Z,28.83
2018-11-12T22:04:54.285Z,23.67
2018-11-12T22:07:22.551Z,28.38
2018-11-12T22:09:50.825Z,23.73
2018-11-12T22:12:19.102Z,21.25
2018-11-12T22:14:47.481Z,25.62
2018-11-12T22:17:15.732Z,25.20
2018-11-12T22:19:44.175Z,29.02
2018-11-12T22:22:12.214Z,21.30
2018-11-12T22:24:40.908Z,27.60
2018-11-12T22:27:09.140Z,43.30
2018-11-12T22:29:37.394Z,45.98
2018-11-12T22:32:05.692Z,49.85
2018-11-12T22:34:33.974Z,47.62
2018-11-12T22:37:02.234Z,37.80
2018-11-12T22:39:30.493Z,28.02
2018-11-12T22:41:58.701Z,22.42
2018-11-12T22:44:26.991Z,20.75
2018-11-12T22:46:55.240Z,18.77
2018-11-12T22:49:23.511Z,18.30
2018-11-12T22:51:51.721Z,16.85
2018-11-12T22:54:19.943Z,18.57
2018-11-12T22:56:48.247Z,17.87
2018-11-12T22:59:16.493Z,19.05
2018-11-12T23:01:44.706Z,21.57
2018-11-12T23:04:12.971Z,16.50
2018-11-12T23:06:41.270Z,17.02
2018-11-12T23:09:16.769Z,16.62
2018-11-12T23:11:45.183Z,17.92
2018-11-12T23:14:14.455Z,16.82
2018-11-12T23:16:43.344Z,18.52
2018-11-12T23:19:11.605Z,18.35
2018-11-12T23:21:40.779Z,19.62
2018-11-12T23:24:09.060Z,22.70
2018-11-12T23:26:37.825Z,17.50
2018-11-12T23:29:06.098Z,18.23
2018-11-12T23:31:34.360Z,17.98
2018-11-12T23:34:02.643Z,16.20
2018-11-12T23:36:30.890Z,17.90
2018-11-12T23:38:59.132Z,16.12
2018-11-12T23:41:27.375Z,17.42
2018-11-12T23:43:55.615Z,23.00
2018-11-12T23:46:23.895Z,26.40
2018-11-12T23:48:52.122Z,22.37
2018-11-12T23:51:20.350Z,18.85
2018-11-12T23:53:48.576Z,20.30
2018-11-12T23:56:16.811Z,16.77
2018-11-12T23:58:45.138Z,21.55
